createdAt,value
2022-10-16T00:01:25.015Z,13.2
2022-10-16T00:16:25.011Z,13
2022-10-16T00:31:25.029Z,12.9
2022-10-16T00:46:25.020Z,13.1
2022-10-16T01:01:25.105Z,13
2022-10-16T01:16:24.998Z,12.9
2022-10-16T01:31:25.038Z,12.9
2022-10-16T01:46:24.983Z,13.1
2022-10-16T02:01:25.026Z,13
2022-10-16T02:16:25.005Z,13
2022-10-16T02:31:24.985Z,12.8
2022-10-16T02:46:25.040Z,12.8
2022-10-16T03:01:25.085Z,12.8
2022-10-16T03:16:24.928Z,12.8
2022-10-16T03:31:24.931Z,12.8
2022-10-16T03:46:25.035Z,12.5
2022-10-16T04:01:25.123Z,12.6
2022-10-16T04:16:25.044Z,12.7
2022-10-16T04:31:25.021Z,12.4
2022-10-16T04:46:24.968Z,12.4
2022-10-16T05:01:24.985Z,12.6
2022-10-16T05:16:24.988Z,12.4
2022-10-16T05:31:25.030Z,12.6
2022-10-16T05:46:24.983Z,12.6
2022-10-16T06:01:25.138Z,12.6
2022-10-16T06:16:24.939Z,12.6
2022-10-16T06:31:25.008Z,12.6
2022-10-16T06:46:25.013Z,12.6
2022-10-16T07:01:24.970Z,12.7
2022-10-16T07:16:24.937Z,12.7
2022-10-16T07:31:24.968Z,12.8
2022-10-16T07:46:24.966Z,13.3
2022-10-16T08:01:25.030Z,13.7
2022-10-16T08:16:24.931Z,14
2022-10-16T08:31:24.985Z,14.3
2022-10-16T08:46:24.928Z,14.7
2022-10-16T09:01:25.022Z,14.9
2022-10-16T09:16:24.943Z,15.2
2022-10-16T09:31:25.043Z,15.4
2022-10-16T09:46:24.976Z,15.5
2022-10-16T10:01:24.930Z,15.6
2022-10-16T10:16:24.991Z,15.6
2022-10-16T10:31:24.987Z,15.8
2022-10-16T10:46:24.962Z,16.2
2022-10-16T11:01:24.947Z,16.5
2022-10-16T11:16:24.946Z,16.8
2022-10-16T11:31:24.957Z,17.2
2022-10-16T11:46:24.991Z,17.4
2022-10-16T12:16:24.940Z,17.6
2022-10-16T12:31:24.973Z,17.8
2022-10-16T12:46:24.931Z,18.5
2022-10-16T13:01:25.019Z,18.3
2022-10-16T13:16:24.936Z,18.2
2022-10-16T13:31:24.950Z,18.4
2022-10-16T13:46:24.929Z,18.7
2022-10-16T14:01:26.159Z,18.8
2022-10-16T14:16:24.939Z,18.2
2022-10-16T14:31:24.928Z,18.2
2022-10-16T14:46:24.927Z,18.3
2022-10-16T15:01:24.925Z,17.9
2022-10-16T15:16:24.976Z,17.7
2022-10-16T15:31:24.977Z,17.8
2022-10-16T15:46:24.927Z,17.6
2022-10-16T16:01:25.052Z,17.5
2022-10-16T16:16:24.977Z,17.3
2022-10-16T16:31:24.938Z,17.1
2022-10-16T16:46:24.931Z,16.9
2022-10-16T17:01:24.937Z,16.7
2022-10-16T17:16:24.923Z,16.6
2022-10-16T17:31:24.941Z,16.5
2022-10-16T17:46:24.936Z,16.4
2022-10-16T18:01:25.089Z,16.4
2022-10-16T18:16:24.979Z,16.5
2022-10-16T18:31:24.981Z,16.4
2022-10-16T18:46:25.028Z,16.5
2022-10-16T19:01:24.939Z,16.4
2022-10-16T19:16:24.929Z,16.2
2022-10-16T19:31:24.976Z,16.2
2022-10-16T19:46:24.976Z,16
2022-10-16T20:01:24.958Z,15.6
2022-10-16T20:16:24.934Z,15.3
2022-10-16T20:31:24.987Z,15.2
2022-10-16T20:46:24.987Z,15
2022-10-16T21:01:24.961Z,14.9
2022-10-16T21:16:24.968Z,14.8
2022-10-16T21:31:24.927Z,14.7
2022-10-16T21:46:24.965Z,14.6
2022-10-16T22:01:24.955Z,14.4
2022-10-16T22:16:24.929Z,14.4
2022-10-16T22:31:24.962Z,14.4
2022-10-16T22:46:24.984Z,14.4
2022-10-16T23:01:24.975Z,14.4
2022-10-16T23:16:24.978Z,14.7
2022-10-16T23:31:24.930Z,15.1
